Terminal Aerodrome Forecast
Issued by NWS Amarillo, TX

Home | Current Version | Previous Version | Text Only | Print | Product List | Glossary On
Versions: 1 2 3 4 5 6 7 8 9 10 11 12 13 14 15 16 17
965
FTUS44 KAMA 231159 AAA
TAFDHT
TAF AMD
KDHT 231159Z 2312/2412 01010KT P6SM SKC
     FM231300 02025G36KT P6SM BKN020
     FM232300 05015KT P6SM BKN040
     FM240500 VRB06KT P6SM VCSH BKN050
     FM240900 VRB06KT P6SM BKN050=

USA.gov is the U.S. government's official web portal to all federal, state and local government web resources and services.